Weather observations for the past three days for
Beaumont Municipal Airport
Imperial (Metric)
Date Time (cdt) Wind (mph) Vis. (mi.) Weather Sky Cond. Temperature (ºF) Relative Humidity Wind Chill (°F) Heat Index (°F) Pressure Precipitation (in)
Air Dwpt 6 hour altimeter (in) sea level (mb) 1 hr 3 hr 6 hr
Max. Min.
05 12:55 SE 5 10.00 Thunderstorm in Vicinity CLR 89.4 69.3 89.8 74.8 52% 94 29.93 0.0
05 12:35 Calm 10.00 Fair CLR 89.1 68.9 51% 93 29.93 0.0
05 12:15 NE 3 10.00 Fair CLR 86.9 71.6 60% 93 29.94 0.0
05 11:55 NE 6 10.00 Partly Cloudy SCT075 SCT100 82.4 73.8 75% 88 29.95 0.0
05 11:35 Calm 10.00 Overcast SCT035 BKN070 OVC085 85.3 73.4 68% 92 29.95 0.0
05 11:15 NW 3 10.00 Overcast SCT023 BKN050 OVC085 85.5 75.2 71% 94 29.95 0.0
05 10:55 NE 3 10.00 Mostly Cloudy BKN023 BKN029 BKN040 85.3 74.7 71% 94 29.95 0.0
05 10:35 Calm 10.00 Mostly Cloudy SCT017 SCT023 BKN065 87.3 76.3 70% 98 29.95 0.0
05 10:15 N 6 10.00 Partly Cloudy SCT014 85.3 76.1 74% 95 29.95 0.0
05 09:55 N 3 10.00 Fair CLR 84.2 76.6 78% 94 29.95 0.0
05 09:35 N 3 10.00 Fair CLR 83.5 76.8 80% 93 29.96 0.0
05 09:15 N 5 10.00 Fair CLR 82.2 76.8 84% 90 29.96 0.0
05 08:55 Calm 10.00 Fair CLR 80.4 76.6 88% 87 29.95 0.0
05 08:35 Calm 10.00 Fair CLR 78.1 75.4 91% 81 29.95 0.0
05 08:15 NE 3 10.00 Fair CLR 77.5 75.4 93% 79 29.95 0.0
05 07:55 Calm 7.00 Partly Cloudy SCT022 75.7 74.3 95% 75 29.95 0.0
05 07:35 Calm 10.00 Partly Cloudy SCT022 75.2 73.6 95% 74 29.94 0.0
05 07:15 Calm 10.00 Fair CLR 75.2 73.6 95% 74 29.93 0.0
05 06:55 Calm 10.00 Fair CLR 75.2 73.4 77.2 74.3 94% 74 29.92 0.0
05 06:35 Calm 7.00 Fair CLR 74.5 72.9 95% 29.91 0.0
05 06:15 Calm 10.00 Fair CLR 74.8 73.4 95% 29.91 0.0
05 05:55 Calm 7.00 Fair CLR 74.5 72.9 95% 29.91 0.0
05 05:35 Calm 10.00 Fair CLR 75 73.4 95% 73 29.91 0.0
05 05:15 Calm 10.00 Fair CLR 75.4 73.8 95% 74 29.91 0.0
05 04:55 Calm 10.00 Fair CLR 75.4 73.6 94% 74 29.91 0.0
05 04:35 Calm 10.00 Fair CLR 75.9 74.1 94% 75 29.9 0.0
05 04:15 Calm 10.00 Fair CLR 75.4 73.6 94% 74 29.9 0.0
05 03:55 Calm 10.00 Fair CLR 75.7 73.9 94% 75 29.9 0.0
05 03:35 Calm 10.00 Fair CLR 75.7 73.8 94% 75 29.9 0.0
05 03:15 Calm 10.00 Fair CLR 75.7 74.3 95% 75 29.9 0.0
05 02:55 Calm 10.00 Fair CLR 76.1 73.8 93% 76 29.9 0.0
05 02:35 Calm 10.00 Fair CLR 76.8 74.5 93% 78 29.9 0.0
05 02:15 Calm 10.00 Fair CLR 75.6 73.8 94% 75 29.9 0.0
05 01:55 Calm 10.00 Fair CLR 77 74.8 93% 78 29.91 0.0
05 01:35 Calm 7.00 Fair CLR 75.9 74.3 95% 75 29.92 0.0
05 01:15 Calm 10.00 Fair CLR 76.3 74.3 94% 76 29.91 0.0
05 00:55 Calm 10.00 Fair CLR 76.5 74.5 84.7 76.5 94% 77 29.92 0.0
05 00:35 Calm 10.00 Fair CLR 77.7 74.8 91% 80 29.92 0.0
05 00:15 Calm 10.00 Fair CLR 76.8 74.7 93% 78 29.92 0.0
04 23:55 Calm 10.00 Fair CLR 77.4 75 93% 79 29.92 0.0
04 23:35 Calm 10.00 Fair CLR 77.7 75.2 92% 80 29.93 0.0
04 23:15 Calm 7.00 Fair CLR 78.6 75.2 89% 82 29.93 0.0
04 22:55 Calm 10.00 Fair CLR 77.9 75.2 91% 80 29.93 0.0
04 22:35 Calm 10.00 Fair CLR 78.1 75.2 91% 81 29.93 0.0
04 22:15 Calm 10.00 Fair CLR 78.4 74.8 89% 82 29.93 0.0
04 21:55 Calm 7.00 Fair CLR 79.2 75.2 88% 83 29.93 0.0
04 21:35 Calm 10.00 Fair CLR 79.2 75.2 88% 83 29.93 0.0
04 21:15 S 3 10.00 Fair CLR 79.9 75.4 86% 85 29.92 0.0
04 20:55 S 5 10.00 Fair CLR 80.2 75.4 85% 86 29.92 0.0
04 20:35 S 3 10.00 Fair CLR 80.8 75.2 83% 87 29.91 0.0
04 20:15 SE 5 10.00 Fair CLR 80.8 75.2 83% 87 29.91 0.0
04 19:55 SE 3 10.00 Fair CLR 81.7 75.4 81% 88 29.9 0.0
04 19:35 SE 3 10.00 Fair CLR 82.6 75.6 79% 90 29.9 0.0
04 19:15 Calm 10.00 Fair CLR 84.2 75.7 76% 93 29.9 0.0
04 18:55 S 3 10.00 Fair CLR 84.7 75.7 89.8 81.5 75% 94 29.9 0.0
04 18:35 SE 5 10.00 Fair CLR 85.1 74.3 70% 93 29.9 0.0
04 18:15 Calm 10.00 Fair CLR 86.4 72.9 64% 93 29.9 0.0
04 17:55 Calm 10.00 Fair CLR 88 69.4 54% 93 29.9 0.0
04 17:35 Calm 10.00 Fair CLR 87.8 68.7 53% 92 29.89 0.0
04 17:15 Calm 10.00 Fair CLR 88.7 68.5 51% 93 29.89 0.0
04 16:55 S 3 10.00 Fair CLR 88 69.8 55% 93 29.89 0.0
04 16:35 Calm 10.00 Fair CLR 88.5 70.7 56% 94 29.89 0.0
04 16:15 Calm 10.00 Fair CLR 89.2 70 53% 95 29.9 0.0
04 15:55 Calm 10.00 Fair CLR 88.2 71.6 58% 95 29.91 0.0
04 15:35 SE 3 10.00 Fair CLR 86.9 71.2 60% 93 29.92 0.0
04 15:15 SE 3 10.00 Fair CLR 87.4 72.5 61% 95 29.93 0.0
04 14:55 Calm 10.00 Fair CLR 86.2 72.3 63% 93 29.93 0.0
04 14:35 Calm 10.00 Fair CLR 85.5 72.3 65% 92 29.95 0.0
04 14:15 Calm 10.00 Fair CLR 85.1 72.7 66% 92 29.95 0.0
04 13:55 S 5 10.00 Fair CLR 86 72.5 64% 93 29.96 0.0
04 13:35 Calm 10.00 Fair CLR 83.3 73.4 72% 90 29.96 0.0
04 13:15 SE 5 10.00 Fair CLR 81.9 74.3 78% 88 29.98 0.0
04 12:55 Calm 10.00 Thunderstorm in Vicinity CLR 82.2 74.1 88.5 75.7 77% 88 29.98 0.0
04 12:35 SW 7 10.00 Thunderstorm SCT036 SCT043 SCT050 81.5 73 76% 87 29.98 0.0
04 12:15 S 7 G 16 10.00 Thunderstorm SCT034 SCT043 BKN050 83.7 74.1 73% 91 29.98 0.0
04 11:55 SE 6 10.00 Thunderstorm CLR 88 72.9 61% 96 29.98 0.0
04 11:35 E 5 10.00 Fair CLR 87.4 74.3 65% 96 29.98 0.0
04 11:15 E 5 10.00 Fair CLR 87.3 75.2 67% 97 29.98 0.0
04 10:55 E 3 10.00 Fair CLR 83.8 75.4 76% 92 29.98 0.0
04 10:35 NE 6 10.00 Fair CLR 86.9 75.2 68% 96 29.98 0.0
04 10:15 E 5 10.00 Fair CLR 86.4 75.6 70% 96 29.97 0.0
04 09:55 E 6 10.00 Thunderstorm in Vicinity CLR 85.5 76.1 74% 95 29.97 0.0
04 09:35 E 3 10.00 Fair CLR 84.7 75.7 75% 94 29.98 0.0
04 09:15 E 3 3.00 Fair with Haze CLR 83.3 76.3 79% 92 29.97 0.0
04 08:55 NE 3 7.00 Partly Cloudy SCT022 82.4 76.5 82% 90 29.97 0.0
04 08:35 E 3 7.00 Fair CLR 81.5 76.6 85% 89 29.96 0.0
04 08:15 Calm 10.00 Fair CLR 79.9 76.3 89% 85 29.96 0.0
04 07:55 Calm 10.00 Fair CLR 78.1 75.9 93% 81 29.95 0.0
04 07:35 Calm 10.00 Fair CLR 77 75.2 94% 78 29.95 0.0
04 07:15 Calm 7.00 Fair CLR 76.5 75 95% 77 29.93 0.0
04 06:55 Calm 7.00 Fair CLR 76.1 74.3 77.2 74.5 94% 76 29.93 0.0
04 06:35 Calm 10.00 Fair CLR 76.3 74.7 95% 76 29.93 0.0
04 06:15 Calm 10.00 Fair CLR 76.1 74.5 95% 76 29.93 0.0
04 05:55 Calm 10.00 Partly Cloudy SCT021 SCT027 SCT034 76.3 74.8 95% 76 29.93 0.0
04 05:35 NE 5 10.00 Mostly Cloudy BKN021 BKN027 BKN034 76.3 75 96% 76 29.93 0.0
04 05:15 NE 5 10.00 Partly Cloudy SCT021 SCT027 75.7 74.3 95% 75 29.93 0.0
04 04:55 Calm 7.00 Partly Cloudy SCT021 75.4 73.9 95% 74 29.93 0.0
04 04:35 Calm 0.75 Fog/Mist VV005 74.7 73.4 96% 29.92 0.0
04 04:15 Calm 5.00 Fog/Mist SCT023 SCT029 75.2 73.8 95% 74 29.92 0.0
04 03:55 Calm 7.00 Partly Cloudy SCT023 75.6 74.3 96% 74 29.92 0.0
04 03:35 Calm 7.00 Fair CLR 75.4 73.9 95% 74 29.92 0.0
04 03:15 Calm 7.00 Fair CLR 76.1 74.5 95% 76 29.91 0.0
04 02:55 Calm 4.00 Fog/Mist CLR 75.7 74.1 95% 75 29.92 0.0
04 02:35 Calm 7.00 Fair CLR 76.1 74.5 95% 76 29.92 0.0
04 02:15 Calm 10.00 Fair CLR 76.5 74.7 94% 77 29.92 0.0
04 01:55 Calm 10.00 Fair CLR 76.3 74.5 94% 76 29.92 0.0
04 01:35 Calm 10.00 Fair CLR 76.6 74.7 94% 77 29.91 0.0
04 01:15 Calm 10.00 Fair CLR 77 75.2 94% 78 29.92 0.0
04 00:55 Calm 10.00 Fair CLR 76.6 74.7 84.2 76.6 94% 77 29.92 0.0
04 00:35 Calm 10.00 Fair CLR 77.4 75.2 93% 79 29.91 0.0
04 00:15 SE 3 10.00 Fair CLR 77.2 75 93% 78 29.91 0.0
03 23:55 Calm 10.00 Fair CLR 77 74.7 93% 78 29.91 0.0
03 23:35 Calm 10.00 Fair CLR 77 74.8 93% 78 29.92 0.0
03 23:15 Calm 10.00 Fair CLR 77 74.8 93% 78 29.92 0.0
03 22:55 SE 3 10.00 Fair CLR 77.2 74.7 92% 79 29.93 0.0
03 22:35 SE 3 10.00 Fair CLR 77.4 74.7 91% 79 29.93 0.0
03 22:15 SE 3 10.00 Fair CLR 77.7 74.5 90% 80 29.93 0.0
03 21:55 SE 3 10.00 Fair CLR 77.9 74.7 90% 80 29.93 0.0
03 21:35 Calm 10.00 Fair CLR 78.4 74.7 88% 81 29.93 0.0
03 21:15 Calm 10.00 Fair CLR 78.4 74.7 88% 81 29.93 0.0
03 20:55 Calm 10.00 Fair CLR 78.8 74.5 87% 82 29.93 0.0
03 20:35 S 3 10.00 Fair CLR 78.8 74.5 87% 82 29.91 0.0
03 20:15 Calm 10.00 Fair CLR 79.7 74.1 83% 84 29.9 0.0
03 19:55 E 3 10.00 Fair CLR 80.2 73.8 81% 85 29.9 0.0
03 19:35 SE 5 10.00 Fair CLR 81.5 73.2 76% 87 29.9 0.0
03 19:15 E 5 10.00 Fair CLR 82.4 74.3 77% 89 29.89 0.0
03 18:55 E 5 10.00 Fair CLR 84.4 74.8 73% 92 29.89 0.0
03 18:35 E 5 10.00 Fair CLR 85.1 73.9 69% 93 29.9 0.0
03 18:15 E 6 10.00 Fair CLR 86 73.9 67% 94 29.9 0.0
03 17:55 E 3 10.00 Fair CLR 85.3 72.3 65% 92 29.9 0.0
03 17:35 E 7 10.00 Partly Cloudy SCT032 SCT040 83.8 72.1 68% 90 29.91 0.0
03 17:15 E 12 G 20 10.00 Thunderstorm BKN038 88.2 75.2 66% 98 29.91 0.0
03 16:55 E 3 10.00 Partly Cloudy SCT038 87.8 71.6 59% 94 29.92 0.0
03 16:35 NE 3 10.00 Fair CLR 89.2 70.5 54% 95 29.92 0.0
03 16:15 NE 3 10.00 Fair CLR 88.2 72 59% 95 29.93 0.0
03 15:55 NE 6 10.00 Fair CLR 87.8 72.1 60% 95 29.93 0.0
03 15:35 NE 5 10.00 Fair CLR 87.8 71.8 59% 94 29.93 0.0
03 15:15 E 6 10.00 Fair CLR 87.8 72.5 61% 95 29.94 0.0
03 14:55 E 7 10.00 Partly Cloudy SCT075 SCT080 87.1 73.4 64% 95 29.94 0.0
03 14:35 Calm 10.00 Thunderstorm in Vicinity SCT075 85.6 74.8 70% 94 29.96 0.0
03 14:15 E 3 10.00 Partly Cloudy SCT075 84.4 76.8 78% 94 29.97 0.0
Date Time (cdt) Wind (mph) Vis. (mi.) Weather Sky Cond. Air Dwpt Max. Min. Relative Humidity Wind Chill (°F) Heat Index (°F) altimeter (in) sea level (mb) 1 hr 3 hr 6 hr
6 hour
Temperature (ºF) Pressure Precipitation (in)